createdAt,value
2019-04-03T00:07:08.261Z,100130.28
2019-04-03T00:09:42.296Z,100137.94
2019-04-03T00:12:16.445Z,100133.98
2019-04-03T00:15:13.662Z,100131.73
2019-04-03T00:17:48.001Z,100131.19
2019-04-03T00:20:36.356Z,100134.56
2019-04-03T00:37:07.239Z,100122.83
2019-04-03T00:39:41.551Z,100125.31
2019-04-03T00:53:16.837Z,100151.64
2019-04-03T01:06:40.508Z,100147.37
2019-04-03T01:09:14.091Z,100141.04
2019-04-03T01:11:48.058Z,100142.80
2019-04-03T01:25:21.826Z,100144.80
2019-04-03T01:27:55.671Z,100153.97
2019-04-03T01:30:29.578Z,100152.28
2019-04-03T01:33:03.602Z,100160.14
2019-04-03T01:35:48.798Z,100156.79
2019-04-03T02:15:14.610Z,100152.98
2019-04-03T02:17:47.822Z,100153.73
2019-04-03T02:20:44.703Z,100152.39
2019-04-03T02:23:18.630Z,100153.86
2019-04-03T02:25:52.933Z,100153.57
2019-04-03T02:44:37.621Z,100131.48
2019-04-03T02:47:16.634Z,100138.48
2019-04-03T03:17:06.901Z,100124.83
2019-04-03T03:33:28.122Z,100133.21
2019-04-03T03:35:48.886Z,100128.57
2019-04-03T03:38:27.075Z,100128.81
2019-04-03T03:40:59.927Z,100127.23
2019-04-03T03:54:51.158Z,100131.81
2019-04-03T05:10:41.121Z,100134.55
2019-04-03T05:13:16.243Z,100143.48
2019-04-03T05:15:53.195Z,100144.30
2019-04-03T05:18:28.565Z,100150.02
2019-04-03T05:21:03.204Z,100146.02
2019-04-03T05:23:37.436Z,100136.22
2019-04-03T05:50:40.184Z,100137.95
2019-04-03T05:53:32.720Z,100132.11
2019-04-03T05:56:06.844Z,100125.23
2019-04-03T06:20:29.968Z,100160.25
2019-04-03T06:23:04.296Z,100157.34
2019-04-03T06:25:39.451Z,100158.27
2019-04-03T06:28:14.862Z,100163.97
2019-04-03T07:13:00.449Z,100190.02
2019-04-03T07:15:33.409Z,100198.36
2019-04-03T07:18:10.402Z,100200.84
2019-04-03T07:20:43.739Z,100206.30
2019-04-03T07:23:19.448Z,100208.91
2019-04-03T07:36:30.597Z,100203.05
2019-04-03T07:39:05.950Z,100204.51
2019-04-03T07:41:41.576Z,100211.67
2019-04-03T07:44:15.411Z,100212.25
2019-04-03T07:46:50.140Z,100204.52
2019-04-03T08:11:04.070Z,100204.24
2019-04-03T08:13:56.358Z,100196.31
2019-04-03T08:16:31.438Z,100200.70
2019-04-03T08:19:08.020Z,100197.86
2019-04-03T08:32:17.094Z,100201.59
2019-04-03T08:34:56.925Z,100206.76
2019-04-03T08:37:43.513Z,100206.83
2019-04-03T08:40:20.026Z,100204.93
2019-04-03T08:42:53.368Z,100209.02
2019-04-03T08:56:08.597Z,100197.39
2019-04-03T08:58:57.260Z,100198.51
2019-04-03T09:01:30.936Z,100198.49
2019-04-03T09:04:04.670Z,100204.17
2019-04-03T09:17:19.058Z,100198.80
2019-04-03T09:20:06.707Z,100193.68
2019-04-03T09:22:41.300Z,100189.42
2019-04-03T09:25:17.096Z,100175.43
2019-04-03T09:27:57.665Z,100180.88
2019-04-03T09:41:57.319Z,100185.41
2019-04-03T10:00:35.506Z,100184.27
2019-04-03T10:03:09.537Z,100173.73
2019-04-03T10:05:43.560Z,100169.94
2019-04-03T10:08:32.091Z,100169.66
2019-04-03T10:11:06.889Z,100168.83
2019-04-03T10:13:40.901Z,100168.52
2019-04-03T10:16:16.395Z,100169.59
2019-04-03T10:18:50.665Z,100166.86
2019-04-03T10:21:24.469Z,100168.48
2019-04-03T10:24:00.342Z,100160.40
2019-04-03T10:26:34.012Z,100155.83
2019-04-03T10:39:44.455Z,100125.45
2019-04-03T10:42:31.795Z,100126.81
2019-04-03T10:45:09.843Z,100132.50
2019-04-03T10:47:44.855Z,100117.05
2019-04-03T10:50:19.449Z,100117.02
2019-04-03T10:52:54.454Z,100120.45
2019-04-03T10:55:29.553Z,100114.73
2019-04-03T10:58:06.548Z,100112.79
2019-04-03T11:12:13.813Z,100105.89
2019-04-03T11:14:58.022Z,100107.73
2019-04-03T11:17:31.186Z,100111.30
2019-04-03T11:20:03.675Z,100113.43
2019-04-03T11:33:14.003Z,100098.31
2019-04-03T11:35:48.968Z,100097.79
2019-04-03T11:38:27.936Z,100090.27
2019-04-03T11:55:04.863Z,100086.48
2019-04-03T12:19:30.448Z,100071.41
2019-04-03T12:22:06.242Z,100078.16
2019-04-03T12:24:40.509Z,100067.84
2019-04-03T12:27:14.971Z,100066.20
2019-04-03T12:29:48.733Z,100061.64
2019-04-03T12:32:36.150Z,100052.97
2019-04-03T12:34:59.636Z,100054.84
2019-04-03T12:38:16.032Z,100052.34
2019-04-03T12:40:50.284Z,100048.56
2019-04-03T12:43:25.244Z,100044.77
2019-04-03T12:46:02.434Z,100043.70
2019-04-03T12:48:35.410Z,100043.69
2019-04-03T12:51:09.485Z,100032.81
2019-04-03T12:53:44.054Z,100044.89
2019-04-03T12:56:24.207Z,100039.41
2019-04-03T12:59:13.245Z,100020.59
2019-04-03T13:01:49.169Z,100018.41
2019-04-03T13:04:43.007Z,100026.69
2019-04-03T13:07:16.860Z,100019.80
2019-04-03T13:10:10.015Z,100016.56
2019-04-03T13:12:43.634Z,100020.37
2019-04-03T13:15:18.332Z,100012.30
2019-04-03T13:17:52.246Z,100009.35
2019-04-03T13:20:26.834Z,100009.05
2019-04-03T13:23:00.821Z,100016.13
2019-04-03T13:25:34.990Z,100012.95
2019-04-03T13:39:38.380Z,99982.82
2019-04-03T13:42:25.486Z,99978.41
2019-04-03T13:45:00.061Z,99973.78
2019-04-03T13:47:32.974Z,99972.89
2019-04-03T13:50:22.934Z,99875.94
2019-04-03T13:52:56.305Z,99954.98
2019-04-03T13:55:33.807Z,99961.39
2019-04-03T13:58:07.000Z,99951.96
2019-04-03T14:00:41.126Z,99951.21
2019-04-03T14:03:27.939Z,99949.88
2019-04-03T14:06:04.237Z,99951.78
2019-04-03T14:08:38.156Z,99952.19
2019-04-03T14:11:23.549Z,99953.23
2019-04-03T14:13:56.961Z,99953.77
2019-04-03T14:16:29.076Z,99949.15
2019-04-03T14:19:02.921Z,99963.07
2019-04-03T14:22:13.710Z,99967.05
2019-04-03T14:24:52.148Z,99958.23
2019-04-03T14:28:10.699Z,99960.34
2019-04-03T14:30:49.877Z,99956.32
2019-04-03T14:33:25.600Z,99953.81
2019-04-03T14:36:18.460Z,99948.48
2019-04-03T14:38:51.702Z,99944.70
2019-04-03T14:41:26.324Z,99948.72
2019-04-03T14:44:17.765Z,99939.20
2019-04-03T14:46:51.660Z,99933.02
2019-04-03T14:49:25.388Z,99914.43
2019-04-03T14:51:59.421Z,99907.52
2019-04-03T14:54:49.967Z,99901.76
2019-04-03T14:57:24.283Z,99904.05
2019-04-03T15:00:25.212Z,99907.84
2019-04-03T15:02:47.572Z,99907.16
2019-04-03T15:05:21.962Z,99914.84
2019-04-03T15:07:55.387Z,99926.77
2019-04-03T15:24:26.882Z,99927.84
2019-04-03T15:27:00.999Z,99931.92
2019-04-03T15:29:46.654Z,99932.51
2019-04-03T15:32:24.951Z,99938.39
2019-04-03T15:40:27.539Z,99940.13
2019-04-03T15:43:15.729Z,99952.49
2019-04-03T15:46:12.156Z,99962.91
2019-04-03T15:49:21.954Z,99966.39
2019-04-03T15:52:56.194Z,99969.57
2019-04-03T15:55:30.109Z,99972.98
2019-04-03T15:58:26.738Z,99982.43
2019-04-03T16:01:02.919Z,99989.57
2019-04-03T16:03:50.438Z,99988.00
2019-04-03T16:06:26.963Z,99995.67
2019-04-03T16:09:02.429Z,99992.03
2019-04-03T16:11:41.617Z,99986.05
2019-04-03T16:14:21.049Z,99981.48
2019-04-03T16:17:00.628Z,99973.47
2019-04-03T17:01:41.025Z,99970.36
2019-04-03T17:04:32.991Z,99971.22
2019-04-03T17:17:54.776Z,99970.36
2019-04-03T17:20:31.159Z,99976.47
2019-04-03T17:23:39.401Z,99974.77
2019-04-03T17:39:48.410Z,99990.72
2019-04-03T17:42:25.690Z,99996.95
2019-04-03T17:56:27.925Z,100000.44
2019-04-03T17:59:18.314Z,100012.45
2019-04-03T18:01:57.067Z,100008.42
2019-04-03T18:18:33.240Z,100002.47
2019-04-03T18:21:06.343Z,100002.28
2019-04-03T18:23:40.256Z,100000.08
2019-04-03T18:37:07.312Z,99988.49
2019-04-03T18:39:43.367Z,99982.20
2019-04-03T18:52:55.773Z,99936.97
2019-04-03T18:55:50.576Z,99946.97
2019-04-03T18:58:24.870Z,99962.73
2019-04-03T19:32:45.404Z,99921.12
2019-04-03T19:35:21.302Z,99910.85
2019-04-03T19:37:59.653Z,99897.84
2019-04-03T19:40:33.272Z,99896.92
2019-04-03T19:43:08.884Z,99904.05
2019-04-03T19:45:41.863Z,99903.69
2019-04-03T19:48:17.767Z,99898.61
2019-04-03T19:51:09.792Z,99893.61
2019-04-03T19:53:44.519Z,99896.69
2019-04-03T19:56:33.703Z,99897.98
2019-04-03T19:59:19.760Z,99890.99
2019-04-03T20:01:57.369Z,99889.14
2019-04-03T20:04:39.713Z,99885.20
2019-04-03T20:07:13.609Z,99876.75
2019-04-03T20:09:47.845Z,99886.80
2019-04-03T20:23:03.172Z,99839.95
2019-04-03T20:25:57.674Z,99811.31
2019-04-03T20:28:33.823Z,99789.59
2019-04-03T20:31:07.741Z,99806.30
2019-04-03T20:44:24.563Z,99806.84
2019-04-03T21:29:07.444Z,99797.92
2019-04-03T21:31:41.657Z,99789.95
2019-04-03T21:34:16.026Z,99783.18
2019-04-03T21:36:49.221Z,99774.77
2019-04-03T21:50:03.451Z,99755.64
2019-04-03T22:03:20.068Z,99886.80
2019-04-03T22:05:56.209Z,99893.83
2019-04-03T22:08:51.378Z,99888.48
2019-04-03T22:11:42.910Z,99878.77
2019-04-03T22:14:16.972Z,99872.02
2019-04-03T22:16:50.775Z,99845.73
2019-04-03T22:19:27.697Z,99864.67
2019-04-03T22:22:07.822Z,99867.50
2019-04-03T22:24:43.046Z,99904.16
2019-04-03T22:27:34.770Z,99928.27
2019-04-03T22:30:26.703Z,99948.94
2019-04-03T22:33:18.288Z,99959.06
2019-04-03T22:35:53.662Z,99959.45
2019-04-03T22:38:48.193Z,99953.69
2019-04-03T22:41:42.860Z,99961.38
2019-04-03T22:44:17.799Z,99980.61
2019-04-03T22:46:53.988Z,99978.25
2019-04-03T22:49:27.427Z,99981.84
2019-04-03T22:52:08.871Z,99969.98
2019-04-03T22:54:43.884Z,99971.88
2019-04-03T22:57:36.341Z,99963.11
2019-04-03T23:11:02.284Z,99962.79
2019-04-03T23:13:36.310Z,99966.94
2019-04-03T23:16:11.540Z,99972.02
2019-04-03T23:19:03.518Z,99971.20
2019-04-03T23:37:45.383Z,99938.68
2019-04-03T23:40:19.519Z,99947.00
2019-04-03T23:42:55.346Z,99942.22
2019-04-03T23:45:31.572Z,99938.69
2019-04-03T23:48:06.407Z,99940.94
2019-04-03T23:50:40.332Z,99925.13
